Avery Island, Louisiana
Current Conditions -  °F | °C
As of 10:53 PM on Wednesday 26 Nov 2014 (Local Time) from KARA Reporting Station
Clear Clear  
Wind Chill: 56°   Ceiling: Unl
Heat Index: 56°   Visibility: 10mi
Dew Point: 48°   Wind: 6mph
Humidity: 75%   Direction: 260°W
Pressure: 30.29"   Gusts: NA
Location:  29.91°N, 91.91°W
Report Text: KARA 270453Z AUTO 26005KT 10SM CLR 13/09 A3029 RMK AO2 SLP256 T01330089
Loading
Personal Weather Stations






























Interactive Weather Map New forecast layout! Learn more

10-Day Weather Forecast

Advertisements
Track Severe Weather on mobile